KTUS/TUS METAR and TAF weather

Enter ICAO airport designator
Station Type Date Time Source
KTUS METAR 2019/02/18 03:53 UTC NOAA

KTUS 180353Z 28005KT 10SM CLR 08/M04 A3000 RMK AO2 SLP151 T00831044


Station Type Date Time Source
KTUS Decoded METAR 2019/02/18 03:53 UTC NOAA

TUCSON INTERNATIONAL AIRPORT , AZ, United States (KTUS) 32-08N 110-57W 786M
Feb 17, 2019 - 10:53 PM EST / 2019.02.18 0353 UTC
Wind: from the W (280 degrees) at 6 MPH (5 KT):0
Visibility: 10 mile(s):0
Sky conditions: clear
Temperature: 46.9 F (8.3 C)
Dew Point: 24.1 F (-4.4 C)
Relative Humidity: 40%
Pressure (altimeter): 30 in. Hg (1015 hPa)
ob: KTUS 180353Z 28005KT 10SM CLR 08/M04 A3000 RMK AO2 SLP151 T00831044
cycle: 4

Station Type Date Time Source
KTUS TAF 2019/02/17 18:22 UTC NOAA

TAF KTUS 171720Z 1718/1818 29007KT P6SM FEW080
FM172000 29014G22KT P6SM SCT080
FM180400 21008KT P6SM SCT080
FM181500 17008KT P6SM VCSH BKN070


Example: see airport list